METAR Data

Data at: 1841 UTC 21 Nov 2018

METAR for:KIWI (Wiscasset Arpt, ME, US)
Text:KIWI 211753Z AUTO 23006KT 10SM OVC044 01/M02 A2982 RMK AO2 SLP098 T00061022 10006 21061 58035
Temperature: 0.6°C ( 33°F)
Dewpoint: -2.2°C ( 28°F) [RH = 81%]
Pressure (altimeter):29.82 inches Hg (1009.9 mb) [Sea level pressure: 1009.8 mb]
Winds:from the SW (230 degrees) at 7 MPH (6 knots; 3.1 m/s)
Visibility:10 or more sm (16+ km)
Ceiling:4400 feet AGL
Clouds: overcast cloud deck at 4400 feet AGL
QC Flag:automated observation with no human augmentation